Time;durP1;ratioP1;P1;durP2;ratioP2;P2;SDS_P1;SDS_P2;PMS_P1;PMS_P2;Temp;Humidity;BMP_temperature;BMP_pressure;BME280_temperature;BME280_humidity;BME280_pressure;Samples;Min_cycle;Max_cycle;Signal;HPM_P1;HPM_P2
2022/09/08 00:00:56;;;;;;;2.58;1.00;;;;;;;;;;4995274;28;20027;-68
2022/09/08 00:03:25;;;;;;;5.82;0.98;;;;;;;;;;4996501;28;20022;-67
2022/09/08 00:06:04;;;;;;;5.40;0.95;;;;;;;;;;4996103;28;20043;-68
2022/09/08 00:08:32;;;;;;;5.32;1.08;;;;;;;;;;4995080;28;20058;-68
2022/09/08 00:11:00;;;;;;;4.97;1.00;;;;;;;;;;4996436;28;20037;-68
2022/09/08 00:13:28;;;;;;;3.90;1.00;;;;;;;;;;4996478;28;20410;-68
2022/09/08 00:15:55;;;;;;;4.00;0.85;;;;;;;;;;4996413;28;20019;-67
2022/09/08 00:18:23;;;;;;;3.80;1.10;;;;;;;;;;4996419;28;20026;-67
2022/09/08 00:20:51;;;;;;;5.97;0.80;;;;;;;;;;4996436;28;20023;-68
2022/09/08 00:23:18;;;;;;;2.67;0.68;;;;;;;;;;4996296;28;20121;-68
2022/09/08 00:25:46;;;;;;;3.72;1.15;;;;;;;;;;4996483;28;20101;-67
2022/09/08 00:28:14;;;;;;;3.67;0.88;;;;;;;;;;4994992;28;20038;-68
2022/09/08 00:30:41;;;;;;;3.63;0.70;;;;;;;;;;4996176;28;20022;-68
2022/09/08 00:33:08;;;;;;;2.97;0.80;;;;;;;;;;4996083;28;20019;-69
2022/09/08 00:35:35;;;;;;;3.88;1.10;;;;;;;;;;4996412;28;20088;-67
2022/09/08 00:38:02;;;;;;;4.53;0.70;;;;;;;;;;4995909;28;20402;-68
2022/09/08 00:40:29;;;;;;;4.00;0.90;;;;;;;;;;4994675;28;20042;-67
2022/09/08 00:43:04;;;;;;;3.85;0.65;;;;;;;;;;4994283;28;20037;-68
2022/09/08 00:45:39;;;;;;;6.95;1.25;;;;;;;;;;4996169;28;20109;-69
2022/09/08 00:48:08;;;;;;;4.20;1.10;;;;;;;;;;4996064;28;20085;-69
2022/09/08 00:50:35;;;;;;;4.05;0.90;;;;;;;;;;4996017;28;20015;-68
2022/09/08 00:53:05;;;;;;;5.35;0.95;;;;;;;;;;4995634;28;20029;-67
2022/09/08 00:55:37;;;;;;;6.90;0.75;;;;;;;;;;4995961;28;20026;-68
2022/09/08 00:58:04;;;;;;;4.53;0.95;;;;;;;;;;4995547;28;20030;-68
2022/09/08 01:00:32;;;;;;;4.65;1.13;;;;;;;;;;4994232;28;20406;-69
2022/09/08 01:02:59;;;;;;;5.53;0.88;;;;;;;;;;4994104;28;20026;-67
2022/09/08 01:05:28;;;;;;;3.08;0.90;;;;;;;;;;4994220;28;20422;-68
2022/09/08 01:13:43;;;;;;;3.67;0.73;;;;;;;;;;4994722;28;20037;-68
2022/09/08 01:16:11;;;;;;;3.83;0.55;;;;;;;;;;4994847;28;20045;-68
2022/09/08 01:18:39;;;;;;;3.03;0.60;;;;;;;;;;4994920;28;20030;-68
2022/09/08 01:21:06;;;;;;;3.50;1.00;;;;;;;;;;4995252;28;20030;-67
2022/09/08 01:23:36;;;;;;;3.50;0.88;;;;;;;;;;4994214;28;20205;-68
2022/09/08 01:26:20;;;;;;;3.97;0.85;;;;;;;;;;4994264;28;20018;-67
2022/09/08 01:28:50;;;;;;;4.28;0.88;;;;;;;;;;4995299;28;20034;-68
2022/09/08 01:31:18;;;;;;;4.30;0.98;;;;;;;;;;4995340;28;20018;-67
2022/09/08 01:33:45;;;;;;;6.38;0.95;;;;;;;;;;4993649;28;20057;-67
2022/09/08 01:36:15;;;;;;;9.43;2.05;;;;;;;;;;4995064;28;20105;-67
2022/09/08 01:38:43;;;;;;;5.77;1.73;;;;;;;;;;4994873;28;20028;-67
2022/09/08 01:41:10;;;;;;;6.53;1.10;;;;;;;;;;4993437;28;20026;-67
2022/09/08 01:43:37;;;;;;;5.15;0.93;;;;;;;;;;4993854;28;20080;-68
2022/09/08 01:46:05;;;;;;;3.90;0.85;;;;;;;;;;4994192;28;20026;-68
2022/09/08 01:48:32;;;;;;;3.80;0.90;;;;;;;;;;4993442;28;20070;-67
2022/09/08 01:51:00;;;;;;;6.07;1.00;;;;;;;;;;4994627;28;20022;-67
2022/09/08 01:53:28;;;;;;;6.15;1.00;;;;;;;;;;4994677;28;20026;-68
2022/09/08 01:55:55;;;;;;;8.10;1.45;;;;;;;;;;4992902;28;20026;-67
2022/09/08 01:58:23;;;;;;;6.38;1.23;;;;;;;;;;4993643;28;20387;-67
2022/09/08 02:00:50;;;;;;;4.45;1.10;;;;;;;;;;4994570;28;20041;-68
2022/09/08 02:03:18;;;;;;;6.55;1.33;;;;;;;;;;4994533;28;20030;-67
2022/09/08 02:05:45;;;;;;;6.18;2.38;;;;;;;;;;4994193;28;20053;-69
2022/09/08 02:08:13;;;;;;;7.80;1.15;;;;;;;;;;4993860;28;20026;-68
2022/09/08 02:10:40;;;;;;;6.47;1.17;;;;;;;;;;4993593;28;20498;-69
2022/09/08 02:13:07;;;;;;;7.50;1.20;;;;;;;;;;4994295;28;20355;-68
2022/09/08 02:15:34;;;;;;;7.65;1.50;;;;;;;;;;4994108;28;20030;-68
2022/09/08 02:18:01;;;;;;;4.32;0.90;;;;;;;;;;4992145;28;20034;-67
2022/09/08 02:20:29;;;;;;;7.32;1.85;;;;;;;;;;4994120;28;20039;-68
2022/09/08 02:22:56;;;;;;;4.75;1.00;;;;;;;;;;4992887;28;20460;-68
2022/09/08 02:25:23;;;;;;;8.20;1.25;;;;;;;;;;4993899;28;20084;-68
2022/09/08 02:27:54;;;;;;;8.80;1.42;;;;;;;;;;4994275;28;20073;-67
2022/09/08 02:30:22;;;;;;;10.68;1.20;;;;;;;;;;4994450;28;20533;-68
2022/09/08 02:32:49;;;;;;;4.75;1.00;;;;;;;;;;4994008;28;20033;-68
2022/09/08 02:35:17;;;;;;;5.78;1.35;;;;;;;;;;4993056;28;20030;-69
2022/09/08 02:37:45;;;;;;;5.25;0.93;;;;;;;;;;4991893;28;20026;-68
2022/09/08 02:40:12;;;;;;;6.15;1.10;;;;;;;;;;4992412;28;20435;-68
2022/09/08 02:42:40;;;;;;;4.88;1.15;;;;;;;;;;4993824;28;20056;-68
2022/09/08 02:45:08;;;;;;;6.03;1.20;;;;;;;;;;4993950;28;20030;-68
2022/09/08 02:47:35;;;;;;;4.50;1.10;;;;;;;;;;4993780;28;20456;-69
2022/09/08 02:50:03;;;;;;;6.38;1.17;;;;;;;;;;4993682;28;20022;-68
2022/09/08 02:52:33;;;;;;;6.10;1.40;;;;;;;;;;4993608;28;20018;-67
2022/09/08 02:55:00;;;;;;;6.05;1.52;;;;;;;;;;4993836;28;20026;-69
2022/09/08 02:57:27;;;;;;;6.13;1.45;;;;;;;;;;4993961;28;20030;-70
2022/09/08 02:59:55;;;;;;;5.55;1.20;;;;;;;;;;4993634;28;20101;-68
2022/09/08 03:02:23;;;;;;;6.78;1.30;;;;;;;;;;4992347;28;20505;-69
2022/09/08 03:04:50;;;;;;;6.10;1.13;;;;;;;;;;4992104;28;20026;-68
2022/09/08 03:07:18;;;;;;;6.15;1.30;;;;;;;;;;4993042;28;20034;-69
2022/09/08 03:09:45;;;;;;;4.65;0.95;;;;;;;;;;4992191;28;20022;-68
2022/09/08 03:12:13;;;;;;;4.43;1.00;;;;;;;;;;4993465;28;20018;-68
2022/09/08 03:14:40;;;;;;;4.85;1.10;;;;;;;;;;4992231;28;20022;-68
2022/09/08 03:17:07;;;;;;;4.63;1.10;;;;;;;;;;4992873;28;20390;-68
2022/09/08 03:19:34;;;;;;;6.40;1.10;;;;;;;;;;4993464;28;20061;-67
2022/09/08 03:22:01;;;;;;;5.68;1.02;;;;;;;;;;4993390;28;20026;-68
2022/09/08 03:24:29;;;;;;;5.85;0.98;;;;;;;;;;4993407;28;20026;-69
2022/09/08 03:26:56;;;;;;;3.78;0.98;;;;;;;;;;4993470;28;20018;-69
2022/09/08 03:29:23;;;;;;;6.95;1.25;;;;;;;;;;4994955;28;20022;-69
2022/09/08 03:31:50;;;;;;;6.70;1.00;;;;;;;;;;4997580;28;20426;-70
2022/09/08 03:34:17;;;;;;;6.30;1.13;;;;;;;;;;4996005;28;20065;-69
2022/09/08 03:36:44;;;;;;;3.75;0.70;;;;;;;;;;4997126;28;20034;-69
2022/09/08 03:39:11;;;;;;;4.65;1.30;;;;;;;;;;4995860;28;20041;-70
2022/09/08 03:41:39;;;;;;;6.90;1.40;;;;;;;;;;4997041;28;20027;-69
2022/09/08 03:44:06;;;;;;;7.97;1.38;;;;;;;;;;4996918;28;20029;-70
2022/09/08 03:46:33;;;;;;;9.05;1.30;;;;;;;;;;4994871;28;20023;-70
2022/09/08 03:49:00;;;;;;;9.90;1.33;;;;;;;;;;4993974;28;20034;-71
2022/09/08 03:51:28;;;;;;;8.52;1.55;;;;;;;;;;4996885;28;20022;-71
2022/09/08 03:56:41;;;;;;;6.57;1.50;;;;;;;;;;4996647;28;20037;-71
2022/09/08 03:59:09;;;;;;;7.88;1.70;;;;;;;;;;4996814;28;20030;-71
2022/09/08 04:01:36;;;;;;;10.05;1.55;;;;;;;;;;4996710;28;20023;-72
2022/09/08 04:04:04;;;;;;;9.20;1.75;;;;;;;;;;4996702;28;20022;-69
2022/09/08 04:06:31;;;;;;;7.07;1.10;;;;;;;;;;4996089;28;20050;-70
2022/09/08 04:08:58;;;;;;;8.27;1.85;;;;;;;;;;4996931;28;20026;-71
2022/09/08 04:11:26;;;;;;;8.77;1.67;;;;;;;;;;4996557;28;20372;-70
2022/09/08 04:13:53;;;;;;;6.40;1.40;;;;;;;;;;4996590;28;20109;-70
2022/09/08 04:16:21;;;;;;;7.93;1.60;;;;;;;;;;4995918;28;20031;-69
2022/09/08 04:18:48;;;;;;;6.55;1.27;;;;;;;;;;4996415;28;20430;-70
2022/09/08 04:21:15;;;;;;;7.78;1.75;;;;;;;;;;4996498;28;20050;-70
2022/09/08 04:23:42;;;;;;;7.97;1.58;;;;;;;;;;4994804;28;20037;-71
2022/09/08 04:26:11;;;;;;;8.43;1.33;;;;;;;;;;4996016;28;20097;-71
2022/09/08 04:28:39;;;;;;;8.60;1.77;;;;;;;;;;4994641;28;20414;-71
2022/09/08 04:31:08;;;;;;;7.78;1.23;;;;;;;;;;4995725;28;20115;-69
2022/09/08 04:33:36;;;;;;;9.15;1.50;;;;;;;;;;4996334;28;20399;-69
2022/09/08 04:36:15;;;;;;;9.15;1.70;;;;;;;;;;4996208;28;20041;-70
2022/09/08 04:38:42;;;;;;;7.20;1.42;;;;;;;;;;4995242;28;20025;-70
2022/09/08 04:41:11;;;;;;;10.82;1.60;;;;;;;;;;4993094;28;20030;-70
2022/09/08 04:43:38;;;;;;;9.57;1.83;;;;;;;;;;4994648;28;20049;-70
2022/09/08 04:46:06;;;;;;;8.55;1.45;;;;;;;;;;4996241;28;20026;-71
2022/09/08 04:48:34;;;;;;;8.73;1.60;;;;;;;;;;4995807;28;20081;-70
2022/09/08 04:51:01;;;;;;;8.30;1.33;;;;;;;;;;4995920;28;20026;-71
2022/09/08 04:53:29;;;;;;;12.27;2.10;;;;;;;;;;4993327;28;20510;-71
2022/09/08 04:55:56;;;;;;;8.43;1.33;;;;;;;;;;4995214;28;20029;-70
2022/09/08 04:58:24;;;;;;;6.65;1.25;;;;;;;;;;4993007;28;20061;-70
2022/09/08 05:00:51;;;;;;;6.85;1.50;;;;;;;;;;4994891;28;20403;-69
2022/09/08 05:03:18;;;;;;;10.32;1.83;;;;;;;;;;4995712;28;20029;-69
2022/09/08 05:05:45;;;;;;;9.20;1.90;;;;;;;;;;4995503;28;20100;-69
2022/09/08 05:08:12;;;;;;;11.10;2.28;;;;;;;;;;4995650;28;20018;-70
2022/09/08 05:10:39;;;;;;;9.02;1.88;;;;;;;;;;4995652;28;20019;-69
2022/09/08 05:13:06;;;;;;;9.25;1.40;;;;;;;;;;4994086;28;20022;-70
2022/09/08 05:15:34;;;;;;;7.50;1.27;;;;;;;;;;4994296;28;20037;-70
2022/09/08 05:18:01;;;;;;;7.18;1.15;;;;;;;;;;4993406;28;20462;-69
2022/09/08 05:20:28;;;;;;;6.97;1.10;;;;;;;;;;4995411;28;20033;-69
2022/09/08 05:22:55;;;;;;;7.97;1.63;;;;;;;;;;4995247;28;20030;-70
2022/09/08 05:25:23;;;;;;;8.45;1.52;;;;;;;;;;4993793;28;20109;-71
2022/09/08 05:27:50;;;;;;;8.48;1.50;;;;;;;;;;4977782;28;20027;-70
2022/09/08 05:30:17;;;;;;;11.63;2.17;;;;;;;;;;4993772;28;20030;-70
2022/09/08 05:32:45;;;;;;;4.30;1.13;;;;;;;;;;4995087;28;20386;-70
2022/09/08 05:35:12;;;;;;;10.15;2.05;;;;;;;;;;4995016;28;20050;-71
2022/09/08 05:37:39;;;;;;;5.78;1.17;;;;;;;;;;4995021;28;20030;-70
2022/09/08 05:40:07;;;;;;;8.43;1.30;;;;;;;;;;4994975;28;20394;-70
2022/09/08 05:42:34;;;;;;;10.60;1.40;;;;;;;;;;4994520;28;20052;-71
2022/09/08 05:45:01;;;;;;;7.97;1.63;;;;;;;;;;4993534;28;20042;-69
2022/09/08 05:47:28;;;;;;;7.80;1.33;;;;;;;;;;4994508;28;20030;-69
2022/09/08 05:49:55;;;;;;;4.68;1.38;;;;;;;;;;4994684;28;20023;-69
2022/09/08 05:52:22;;;;;;;7.57;1.15;;;;;;;;;;4991689;28;20046;-71
2022/09/08 05:54:49;;;;;;;10.40;1.40;;;;;;;;;;4993909;28;20042;-69
2022/09/08 05:57:16;;;;;;;8.68;1.92;;;;;;;;;;4994718;28;20022;-68
2022/09/08 05:59:44;;;;;;;10.50;1.50;;;;;;;;;;4994588;28;20029;-69
2022/09/08 06:02:11;;;;;;;7.82;1.25;;;;;;;;;;4994625;28;20045;-70
2022/09/08 06:04:38;;;;;;;10.23;1.65;;;;;;;;;;4994256;28;20439;-70
2022/09/08 06:07:06;;;;;;;12.15;2.17;;;;;;;;;;4994156;28;20045;-70
2022/09/08 06:09:33;;;;;;;9.90;1.67;;;;;;;;;;4994354;28;20064;-69
2022/09/08 06:12:00;;;;;;;6.50;1.20;;;;;;;;;;4994203;28;20557;-69
2022/09/08 06:14:27;;;;;;;9.43;1.60;;;;;;;;;;4992708;28;20026;-68
2022/09/08 06:16:54;;;;;;;9.93;1.88;;;;;;;;;;4992872;28;20026;-69
2022/09/08 06:19:22;;;;;;;9.10;1.92;;;;;;;;;;4993887;28;20026;-70
2022/09/08 06:21:49;;;;;;;12.05;2.03;;;;;;;;;;4992503;28;20048;-69
2022/09/08 06:24:16;;;;;;;7.85;1.63;;;;;;;;;;4993921;28;20022;-70
2022/09/08 06:26:43;;;;;;;9.98;2.03;;;;;;;;;;4993944;28;20026;-68
2022/09/08 06:29:12;;;;;;;11.18;1.90;;;;;;;;;;4994299;28;20138;-69
2022/09/08 06:31:44;;;;;;;12.70;1.92;;;;;;;;;;4992454;28;20026;-69
2022/09/08 06:34:15;;;;;;;12.52;2.15;;;;;;;;;;4991212;28;20089;-68
2022/09/08 06:36:41;;;;;;;;;;;;;;;;;;4992723;28;20022;-68
2022/09/08 06:39:11;;;;;;;12.10;2.30;;;;;;;;;;4993560;28;19906;-69
2022/09/08 06:41:44;;;;;;;11.80;1.88;;;;;;;;;;4993701;28;20037;-69
2022/09/08 06:44:16;;;;;;;9.40;1.23;;;;;;;;;;4992502;28;20121;-68
2022/09/08 06:46:45;;;;;;;15.38;2.38;;;;;;;;;;4993733;28;20031;-68
2022/09/08 06:49:13;;;;;;;9.55;2.25;;;;;;;;;;4993560;28;20029;-68
2022/09/08 06:52:09;;;;;;;10.60;1.63;;;;;;;;;;4993770;28;20427;-68
2022/09/08 06:54:44;;;;;;;12.43;1.58;;;;;;;;;;4988945;28;20046;-68
2022/09/08 06:57:26;;;;;;;9.00;2.25;;;;;;;;;;4993802;28;20034;-69
2022/09/08 06:59:53;;;;;;;10.50;2.20;;;;;;;;;;4991983;28;20018;-68
2022/09/08 07:02:39;;;;;;;11.18;2.22;;;;;;;;;;4993342;28;20022;-68
2022/09/08 07:05:24;;;;;;;7.25;1.52;;;;;;;;;;4993029;28;20026;-68
2022/09/08 07:07:58;;;;;;;10.10;2.15;;;;;;;;;;4993439;28;20118;-68
2022/09/08 07:10:28;;;;;;;12.23;2.40;;;;;;;;;;4993678;28;20023;-68
2022/09/08 07:12:58;;;;;;;9.57;1.98;;;;;;;;;;4992102;28;20500;-67
2022/09/08 07:15:37;;;;;;;7.45;1.77;;;;;;;;;;4993663;28;20026;-67
2022/09/08 07:18:04;;;;;;;13.02;2.33;;;;;;;;;;4993335;28;20018;-69
2022/09/08 07:20:31;;;;;;;12.93;2.22;;;;;;;;;;4993350;28;20525;-69
2022/09/08 07:23:05;;;;;;;8.18;1.70;;;;;;;;;;4993305;28;20050;-68
2022/09/08 07:25:42;;;;;;;9.90;2.13;;;;;;;;;;4993349;28;20033;-68
2022/09/08 07:28:12;;;;;;;10.35;2.28;;;;;;;;;;4993489;28;20018;-68
2022/09/08 07:30:40;;;;;;;13.15;2.03;;;;;;;;;;4993458;28;20049;-68
2022/09/08 07:33:16;;;;;;;15.80;2.75;;;;;;;;;;4991744;28;20022;-68
2022/09/08 07:36:07;;;;;;;12.57;2.47;;;;;;;;;;4993288;28;20041;-68
2022/09/08 07:38:39;;;;;;;14.98;2.50;;;;;;;;;;4991910;28;20057;-68
2022/09/08 07:41:07;;;;;;;13.13;2.47;;;;;;;;;;4992030;28;20446;-68
2022/09/08 07:43:35;;;;;;;16.13;2.97;;;;;;;;;;4993133;28;20026;-68
2022/09/08 07:46:15;;;;;;;12.23;2.65;;;;;;;;;;4991865;28;20033;-68
2022/09/08 07:49:08;;;;;;;17.08;2.97;;;;;;;;;;4993267;28;20037;-68
2022/09/08 07:51:40;;;;;;;14.27;2.67;;;;;;;;;;4991912;28;20043;-69
2022/09/08 07:54:17;;;;;;;14.88;2.50;;;;;;;;;;4993155;28;20022;-68
2022/09/08 07:56:54;;;;;;;16.30;2.55;;;;;;;;;;4993201;28;20029;-69
2022/09/08 07:59:24;;;;;;;14.23;2.95;;;;;;;;;;4993191;28;20037;-69
2022/09/08 08:01:51;;;;;;;14.32;2.45;;;;;;;;;;4992171;28;20030;-69
2022/09/08 08:04:37;;;;;;;15.95;3.00;;;;;;;;;;4991535;28;20482;-69
2022/09/08 08:07:18;;;;;;;16.08;3.05;;;;;;;;;;4992937;28;20038;-69
2022/09/08 08:09:45;;;;;;;11.90;2.85;;;;;;;;;;4991805;28;20042;-69
2022/09/08 08:12:34;;;;;;;17.17;2.92;;;;;;;;;;4991689;28;20030;-70
2022/09/08 08:15:03;;;;;;;14.75;3.00;;;;;;;;;;4993213;28;20031;-69
2022/09/08 08:17:49;;;;;;;12.25;2.63;;;;;;;;;;4993221;28;20398;-69
2022/09/08 08:20:22;;;;;;;12.43;3.03;;;;;;;;;;4995786;28;20022;-69
2022/09/08 08:22:56;;;;;;;12.63;2.80;;;;;;;;;;4994209;28;20102;-69
2022/09/08 08:25:33;;;;;;;12.93;2.60;;;;;;;;;;4995060;28;20038;-70
2022/09/08 08:28:03;;;;;;;17.77;2.95;;;;;;;;;;4993417;28;20026;-69
2022/09/08 08:30:31;;;;;;;12.13;2.20;;;;;;;;;;4994307;28;20030;-69
2022/09/08 08:33:10;;;;;;;17.83;3.75;;;;;;;;;;4994358;28;20390;-68
2022/09/08 08:35:52;;;;;;;17.73;3.30;;;;;;;;;;4996025;28;20026;-68
2022/09/08 08:38:29;;;;;;;14.50;2.85;;;;;;;;;;4996194;28;20029;-69
2022/09/08 08:40:57;;;;;;;19.00;2.85;;;;;;;;;;4996477;28;20037;-69
2022/09/08 08:43:43;;;;;;;12.45;2.78;;;;;;;;;;4994836;28;20610;-68
2022/09/08 08:46:22;;;;;;;15.95;2.80;;;;;;;;;;4995999;28;20038;-68
2022/09/08 08:48:49;;;;;;;15.18;2.30;;;;;;;;;;4995966;28;20050;-69
2022/09/08 08:51:34;;;;;;;15.90;2.78;;;;;;;;;;4996081;28;20101;-67
2022/09/08 08:54:04;;;;;;;14.50;2.63;;;;;;;;;;4995898;28;20088;-68
2022/09/08 08:56:38;;;;;;;13.60;3.15;;;;;;;;;;4994656;28;20057;-68
2022/09/08 08:59:17;;;;;;;15.68;2.75;;;;;;;;;;4994107;28;20102;-70
2022/09/08 09:01:57;;;;;;;15.73;2.75;;;;;;;;;;4995816;28;20551;-68
2022/09/08 09:04:39;;;;;;;18.25;3.47;;;;;;;;;;4994384;28;20565;-67
2022/09/08 09:07:25;;;;;;;13.82;2.67;;;;;;;;;;4994351;28;20046;-68
2022/09/08 09:10:15;;;;;;;14.30;2.63;;;;;;;;;;4995789;28;20033;-69
2022/09/08 09:12:48;;;;;;;16.85;2.97;;;;;;;;;;4994380;28;20049;-69
2022/09/08 09:15:28;;;;;;;15.43;2.70;;;;;;;;;;4995594;28;20386;-68
2022/09/08 09:18:04;;;;;;;13.98;3.00;;;;;;;;;;4994296;28;20372;-68
2022/09/08 09:20:40;;;;;;;16.00;2.67;;;;;;;;;;4994125;28;20149;-68
2022/09/08 09:23:19;;;;;;;15.50;3.40;;;;;;;;;;4995231;28;20026;-69
2022/09/08 09:26:00;;;;;;;18.80;3.35;;;;;;;;;;4995287;28;20030;-69
2022/09/08 09:28:27;;;;;;;;;;;;;;;;;;4995058;28;20019;-68
2022/09/08 09:31:03;;;;;;;16.25;3.28;;;;;;;;;;4993827;28;19906;-68
2022/09/08 09:33:42;;;;;;;16.15;2.97;;;;;;;;;;4993752;28;20022;-68
2022/09/08 09:36:25;;;;;;;18.05;2.30;;;;;;;;;;4995139;28;20433;-68
2022/09/08 09:39:02;;;;;;;18.63;2.80;;;;;;;;;;4993668;28;20080;-69
2022/09/08 09:41:40;;;;;;;17.20;2.95;;;;;;;;;;4994178;28;20471;-69
2022/09/08 09:44:25;;;;;;;16.15;2.95;;;;;;;;;;4993702;28;20022;-69
2022/09/08 09:46:55;;;;;;;17.85;3.33;;;;;;;;;;4995161;28;20026;-69
2022/09/08 09:49:37;;;;;;;16.83;3.33;;;;;;;;;;4994354;28;20027;-69
2022/09/08 09:52:27;;;;;;;16.92;3.05;;;;;;;;;;4993717;28;20022;-69
2022/09/08 09:55:05;;;;;;;19.15;3.60;;;;;;;;;;4994783;28;20030;-69
2022/09/08 09:57:50;;;;;;;13.82;2.90;;;;;;;;;;4993427;28;20034;-69
2022/09/08 10:00:25;;;;;;;22.33;2.95;;;;;;;;;;4994647;28;20026;-68
2022/09/08 10:03:10;;;;;;;13.00;2.60;;;;;;;;;;4994800;28;20022;-69
2022/09/08 10:05:56;;;;;;;12.20;2.20;;;;;;;;;;4992983;28;20050;-69
2022/09/08 10:08:42;;;;;;;14.23;3.03;;;;;;;;;;4994535;28;20101;-68
2022/09/08 10:11:27;;;;;;;12.50;2.67;;;;;;;;;;4993364;28;20025;-69
2022/09/08 10:14:13;;;;;;;15.65;2.78;;;;;;;;;;4992909;28;20030;-69
2022/09/08 10:16:47;;;;;;;13.15;2.33;;;;;;;;;;4993090;28;20050;-69
2022/09/08 10:19:30;;;;;;;15.40;2.90;;;;;;;;;;4993080;28;20018;-69
2022/09/08 10:22:06;;;;;;;12.93;2.88;;;;;;;;;;4994402;28;20055;-69
2022/09/08 10:24:46;;;;;;;13.52;2.28;;;;;;;;;;4993977;28;20061;-69
2022/09/08 10:27:16;;;;;;;13.02;2.22;;;;;;;;;;4994369;28;20018;-69
2022/09/08 10:29:55;;;;;;;16.20;2.88;;;;;;;;;;4992817;28;20121;-68
2022/09/08 10:32:22;;;;;;;16.75;2.70;;;;;;;;;;4994363;28;20028;-69
2022/09/08 10:35:08;;;;;;;10.63;2.00;;;;;;;;;;4993949;28;20033;-68
2022/09/08 10:37:53;;;;;;;16.65;3.22;;;;;;;;;;4994147;28;20501;-68
2022/09/08 10:40:30;;;;;;;11.90;2.17;;;;;;;;;;4993459;28;20100;-68
2022/09/08 10:43:15;;;;;;;15.38;2.65;;;;;;;;;;4993034;28;20030;-67
2022/09/08 10:45:42;;;;;;;14.02;2.35;;;;;;;;;;4994143;28;20026;-68
2022/09/08 10:48:15;;;;;;;12.98;2.50;;;;;;;;;;4992367;28;20486;-68
2022/09/08 10:50:50;;;;;;;14.85;2.10;;;;;;;;;;4993641;28;20093;-69
2022/09/08 10:53:38;;;;;;;15.57;2.05;;;;;;;;;;4993288;28;20022;-69
2022/09/08 10:56:11;;;;;;;16.33;2.83;;;;;;;;;;4992987;28;20026;-71
2022/09/08 10:59:01;;;;;;;12.32;2.30;;;;;;;;;;4993741;28;20032;-67
2022/09/08 11:01:46;;;;;;;11.48;2.25;;;;;;;;;;4992540;28;20026;-68
2022/09/08 11:04:19;;;;;;;13.80;2.88;;;;;;;;;;4993533;28;20037;-68
2022/09/08 11:06:49;;;;;;;12.77;1.95;;;;;;;;;;4992304;28;20134;-69
2022/09/08 11:09:24;;;;;;;14.05;2.38;;;;;;;;;;4992431;28;20101;-68
2022/09/08 11:12:00;;;;;;;13.02;2.63;;;;;;;;;;4992286;28;20026;-67
2022/09/08 11:14:47;;;;;;;9.88;2.30;;;;;;;;;;4992281;28;20030;-68
2022/09/08 11:17:26;;;;;;;12.93;2.38;;;;;;;;;;4991978;28;20019;-68
2022/09/08 11:19:59;;;;;;;12.50;2.00;;;;;;;;;;4991676;28;20430;-67
2022/09/08 11:22:42;;;;;;;13.93;2.47;;;;;;;;;;4991807;28;20026;-68
2022/09/08 11:25:21;;;;;;;9.13;2.30;;;;;;;;;;4993393;28;20106;-68
2022/09/08 11:28:04;;;;;;;13.50;2.55;;;;;;;;;;4993501;28;20042;-68
2022/09/08 11:30:40;;;;;;;9.32;2.30;;;;;;;;;;4993489;28;20025;-69
2022/09/08 11:33:16;;;;;;;8.60;1.50;;;;;;;;;;4993438;28;20531;-68
2022/09/08 11:35:46;;;;;;;9.10;2.50;;;;;;;;;;4993506;28;20070;-67
2022/09/08 11:38:32;;;;;;;12.10;2.53;;;;;;;;;;4993416;28;20026;-68
2022/09/08 11:40:59;;;;;;;10.80;1.52;;;;;;;;;;4993310;28;20280;-68
2022/09/08 11:43:29;;;;;;;15.25;2.35;;;;;;;;;;4993318;28;20115;-68
2022/09/08 11:46:15;;;;;;;11.23;1.55;;;;;;;;;;4993266;28;20030;-67
2022/09/08 11:48:59;;;;;;;13.80;2.58;;;;;;;;;;4993199;28;20027;-68
2022/09/08 11:51:27;;;;;;;13.15;1.95;;;;;;;;;;4996633;28;20018;-68
2022/09/08 11:53:54;;;;;;;16.00;2.20;;;;;;;;;;4997190;28;20023;-69
2022/09/08 11:56:21;;;;;;;10.20;3.20;;;;;;;;;;4997045;28;20058;-69
2022/09/08 11:58:57;;;;;;;12.43;1.95;;;;;;;;;;4996894;28;20109;-69
2022/09/08 12:01:42;;;;;;;14.25;2.50;;;;;;;;;;4996987;28;20529;-68
2022/09/08 12:04:19;;;;;;;13.93;3.08;;;;;;;;;;4996819;28;20049;-68
2022/09/08 12:06:46;;;;;;;11.52;1.75;;;;;;;;;;4994878;28;20045;-68
2022/09/08 12:09:16;;;;;;;11.88;2.03;;;;;;;;;;4995766;28;20023;-67
2022/09/08 12:12:02;;;;;;;10.52;1.40;;;;;;;;;;4996672;28;20394;-67
2022/09/08 12:14:44;;;;;;;13.02;1.90;;;;;;;;;;4997048;28;20030;-68
2022/09/08 12:17:24;;;;;;;13.27;1.80;;;;;;;;;;4996519;28;20034;-68
2022/09/08 12:19:56;;;;;;;8.45;1.77;;;;;;;;;;4996604;28;20391;-68
2022/09/08 12:22:26;;;;;;;10.48;1.92;;;;;;;;;;4996672;28;20497;-68
2022/09/08 12:24:53;;;;;;;10.93;1.73;;;;;;;;;;4996559;28;20110;-68
2022/09/08 12:27:38;;;;;;;9.93;1.60;;;;;;;;;;4995160;28;20418;-68
2022/09/08 12:30:13;;;;;;;12.05;1.83;;;;;;;;;;4996440;28;20015;-67
2022/09/08 12:33:03;;;;;;;14.25;2.53;;;;;;;;;;4996298;28;20029;-68
2022/09/08 12:35:32;;;;;;;11.13;2.38;;;;;;;;;;4991832;28;20037;-68
2022/09/08 12:37:59;;;;;;;11.68;1.98;;;;;;;;;;4995638;28;20066;-67
2022/09/08 12:40:26;;;;;;;12.23;2.33;;;;;;;;;;4996088;28;20069;-68
2022/09/08 12:43:03;;;;;;;8.20;1.75;;;;;;;;;;4995119;28;20045;-68
2022/09/08 12:45:41;;;;;;;11.95;2.45;;;;;;;;;;4995429;28;20023;-69
2022/09/08 12:48:11;;;;;;;10.70;1.98;;;;;;;;;;4996038;28;20138;-69
2022/09/08 12:50:38;;;;;;;8.18;1.85;;;;;;;;;;4995984;28;20027;-68
2022/09/08 12:53:15;;;;;;;10.38;2.22;;;;;;;;;;4995993;28;20363;-68
2022/09/08 12:56:19;;;;;;;12.35;2.17;;;;;;;;;;4995934;28;20031;-68
2022/09/08 12:58:49;;;;;;;11.85;2.10;;;;;;;;;;4987965;28;20034;-69
2022/09/08 13:01:20;;;;;;;10.15;2.28;;;;;;;;;;4995296;28;20073;-69
2022/09/08 13:03:48;;;;;;;11.48;2.30;;;;;;;;;;4994373;28;20030;-69
2022/09/08 13:06:18;;;;;;;11.85;2.40;;;;;;;;;;4993880;28;20042;-68
2022/09/08 13:08:52;;;;;;;8.73;1.98;;;;;;;;;;4995629;28;20105;-68
2022/09/08 13:11:32;;;;;;;9.73;1.90;;;;;;;;;;4995686;28;20023;-69
2022/09/08 13:14:01;;;;;;;9.40;2.03;;;;;;;;;;4994009;28;20080;-69
2022/09/08 13:16:34;;;;;;;11.13;2.10;;;;;;;;;;4993613;28;20603;-69
2022/09/08 13:19:23;;;;;;;9.52;2.40;;;;;;;;;;4993423;28;20482;-69
2022/09/08 13:21:53;;;;;;;13.40;2.22;;;;;;;;;;4992330;28;20054;-69
2022/09/08 13:24:20;;;;;;;;;;;;;;;;;;4993741;28;20030;-69
2022/09/08 13:26:56;;;;;;;9.43;1.60;;;;;;;;;;4992099;28;19998;-69
2022/09/08 13:29:38;;;;;;;10.50;2.10;;;;;;;;;;4994847;28;20025;-69
2022/09/08 13:32:19;;;;;;;7.43;1.83;;;;;;;;;;4995489;28;20102;-70
2022/09/08 13:34:46;;;;;;;;;;;;;;;;;;4994335;28;20022;-69
2022/09/08 13:37:13;;;;;;;12.32;2.92;;;;;;;;;;4995276;28;19989;-68
2022/09/08 13:39:49;;;;;;;11.88;2.40;;;;;;;;;;4995231;28;20455;-68
2022/09/08 13:42:51;;;;;;;11.02;2.30;;;;;;;;;;4994997;28;20097;-68
2022/09/08 13:45:44;;;;;;;7.65;1.95;;;;;;;;;;4973534;28;20039;-68
2022/09/08 13:48:29;;;;;;;12.48;2.30;;;;;;;;;;4964885;28;20435;-68
2022/09/08 13:51:02;;;;;;;12.00;2.60;;;;;;;;;;4994848;28;20062;-67
2022/09/08 13:53:35;;;;;;;10.35;1.90;;;;;;;;;;4995187;28;20517;-68
2022/09/08 13:56:09;;;;;;;12.15;2.88;;;;;;;;;;4993463;28;20030;-68
2022/09/08 13:58:42;;;;;;;17.90;2.17;;;;;;;;;;4994943;28;20027;-69
2022/09/08 14:01:14;;;;;;;13.10;2.05;;;;;;;;;;4993464;28;20117;-69
2022/09/08 14:04:02;;;;;;;7.30;2.00;;;;;;;;;;4993435;28;20034;-69
2022/09/08 14:06:40;;;;;;;16.05;2.22;;;;;;;;;;4994388;28;20144;-70
2022/09/08 14:09:27;;;;;;;10.93;2.35;;;;;;;;;;4993346;28;20022;-70
2022/09/08 14:12:06;;;;;;;9.43;2.17;;;;;;;;;;4994545;28;20022;-69
2022/09/08 14:14:43;;;;;;;8.77;1.70;;;;;;;;;;4992220;28;20430;-69
2022/09/08 14:17:29;;;;;;;9.85;2.20;;;;;;;;;;4994472;28;20661;-69
2022/09/08 14:19:56;;;;;;;10.02;1.90;;;;;;;;;;4994487;28;20388;-70
2022/09/08 14:22:41;;;;;;;8.20;2.05;;;;;;;;;;4994328;28;20026;-69
2022/09/08 14:25:24;;;;;;;10.95;1.95;;;;;;;;;;4994091;28;20038;-69
2022/09/08 14:28:08;;;;;;;13.65;2.00;;;;;;;;;;4994300;28;20026;-69
2022/09/08 14:30:41;;;;;;;10.70;2.00;;;;;;;;;;4992929;28;20533;-70
2022/09/08 14:33:16;;;;;;;7.22;1.58;;;;;;;;;;4994112;28;20068;-69
2022/09/08 14:35:47;;;;;;;10.23;1.65;;;;;;;;;;4994165;28;20026;-69
2022/09/08 14:38:23;;;;;;;7.47;1.70;;;;;;;;;;4992985;28;20133;-70
2022/09/08 14:40:53;;;;;;;7.75;1.63;;;;;;;;;;4993689;28;20027;-69
2022/09/08 14:43:41;;;;;;;9.02;1.50;;;;;;;;;;4994131;28;20122;-69
2022/09/08 14:46:26;;;;;;;5.45;1.38;;;;;;;;;;4994159;28;20034;-69
2022/09/08 14:49:00;;;;;;;7.20;1.60;;;;;;;;;;4993913;28;20504;-69
2022/09/08 14:51:50;;;;;;;5.70;1.20;;;;;;;;;;4992370;28;20459;-69
2022/09/08 14:54:21;;;;;;;7.68;1.45;;;;;;;;;;4987305;28;20093;-70
2022/09/08 14:57:04;;;;;;;6.78;1.85;;;;;;;;;;4993935;28;20032;-69
2022/09/08 14:59:32;;;;;;;6.97;1.65;;;;;;;;;;4994003;28;20097;-69
2022/09/08 15:02:17;;;;;;;7.90;1.30;;;;;;;;;;4994001;28;20080;-70
2022/09/08 15:04:46;;;;;;;5.72;1.20;;;;;;;;;;4993915;28;20057;-69
2022/09/08 15:07:21;;;;;;;7.38;1.58;;;;;;;;;;4993499;28;20042;-69
2022/09/08 15:09:55;;;;;;;7.30;1.58;;;;;;;;;;4993751;28;20026;-69
2022/09/08 15:12:22;;;;;;;8.80;2.22;;;;;;;;;;4993795;28;20026;-69
2022/09/08 15:14:56;;;;;;;7.63;1.65;;;;;;;;;;4992310;28;20176;-69
2022/09/08 15:17:49;;;;;;;7.65;1.63;;;;;;;;;;4993890;28;20097;-69
2022/09/08 15:20:21;;;;;;;6.03;1.50;;;;;;;;;;4992517;28;20069;-69